createdAt,value
2023-04-15T00:00:59.777Z,2.73
2023-04-15T00:03:28.697Z,2.33
2023-04-15T00:05:57.545Z,2.20
2023-04-15T00:08:27.486Z,2.00
2023-04-15T00:10:55.930Z,1.67
2023-04-15T00:13:24.327Z,2.50
2023-04-15T00:15:52.740Z,1.63
2023-04-15T00:18:21.125Z,2.50
2023-04-15T00:20:50.237Z,3.23
2023-04-15T00:23:19.097Z,2.97
2023-04-15T00:25:48.913Z,1.70
2023-04-15T00:28:17.459Z,1.70
2023-04-15T00:30:45.963Z,2.07
2023-04-15T00:33:14.811Z,3.93
2023-04-15T00:35:43.253Z,1.50
2023-04-15T00:38:11.817Z,1.87
2023-04-15T00:40:41.348Z,1.70
2023-04-15T00:43:11.187Z,2.67
2023-04-15T00:45:39.659Z,2.47
2023-04-15T00:48:09.531Z,1.87
2023-04-15T00:50:38.064Z,1.67
2023-04-15T00:53:06.545Z,3.10
2023-04-15T00:55:35.164Z,1.83
2023-04-15T00:58:03.626Z,2.80
2023-04-15T01:00:33.497Z,3.37
2023-04-15T01:03:02.121Z,3.33
2023-04-15T01:05:30.715Z,2.20
2023-04-15T01:07:59.427Z,3.60
2023-04-15T01:10:27.875Z,4.30
2023-04-15T01:12:56.521Z,1.97
2023-04-15T01:15:24.959Z,2.13
2023-04-15T01:17:54.859Z,4.20
2023-04-15T01:20:23.512Z,3.73
2023-04-15T01:22:52.816Z,3.50
2023-04-15T01:25:22.070Z,2.43
2023-04-15T01:27:51.947Z,1.90
2023-04-15T01:30:20.939Z,1.70
2023-04-15T01:32:49.367Z,2.57
2023-04-15T01:35:18.259Z,3.27
2023-04-15T01:37:47.323Z,1.60
2023-04-15T01:40:15.877Z,2.20
2023-04-15T01:42:44.511Z,2.43
2023-04-15T01:45:14.664Z,1.60
2023-04-15T01:47:43.647Z,3.20
2023-04-15T01:50:13.124Z,1.83
2023-04-15T01:52:41.643Z,2.30
2023-04-15T01:55:10.546Z,3.67
2023-04-15T01:57:38.976Z,2.67
2023-04-15T02:00:08.312Z,1.80
2023-04-15T02:02:38.242Z,6.40
2023-04-15T02:05:07.107Z,6.47
2023-04-15T02:07:35.772Z,6.00
2023-04-15T02:10:04.590Z,5.27
2023-04-15T02:12:33.032Z,7.80
2023-04-15T02:15:01.469Z,4.43
2023-04-15T02:17:29.914Z,4.20
2023-04-15T02:19:59.734Z,9.87
2023-04-15T02:22:28.186Z,9.43
2023-04-15T02:24:56.587Z,6.03
2023-04-15T02:27:25.009Z,4.77
2023-04-15T02:29:53.465Z,6.97
2023-04-15T02:32:24.428Z,7.93
2023-04-15T02:34:53.186Z,6.87
2023-04-15T02:37:23.262Z,5.13
2023-04-15T02:39:51.634Z,7.23
2023-04-15T02:42:21.703Z,5.80
2023-04-15T02:44:50.146Z,6.07
2023-04-15T02:47:18.571Z,6.20
2023-04-15T02:49:46.986Z,4.17
2023-04-15T02:52:15.783Z,10.37
2023-04-15T02:54:45.743Z,6.80
2023-04-15T02:57:14.144Z,8.97
2023-04-15T02:59:42.572Z,8.10
2023-04-15T03:02:11.254Z,8.40
2023-04-15T03:04:39.881Z,8.10
2023-04-15T03:07:08.422Z,4.33
2023-04-15T03:09:36.780Z,7.33
2023-04-15T03:12:06.618Z,6.83
2023-04-15T03:14:35.044Z,5.90
2023-04-15T03:17:03.476Z,7.03
2023-04-15T03:19:31.924Z,13.13
2023-04-15T03:22:00.374Z,5.30
2023-04-15T03:24:29.796Z,5.63
2023-04-15T03:26:58.316Z,12.57
2023-04-15T03:29:28.170Z,5.80
2023-04-15T03:31:56.915Z,6.90
2023-04-15T03:34:25.293Z,6.23
2023-04-15T03:36:53.713Z,10.37
2023-04-15T03:39:22.136Z,11.27
2023-04-15T03:41:51.460Z,8.93
2023-04-15T03:44:19.858Z,8.97
2023-04-15T03:46:49.858Z,11.00
2023-04-15T03:49:19.364Z,8.23
2023-04-15T03:51:47.831Z,8.17
2023-04-15T03:54:16.315Z,9.50
2023-04-15T03:56:44.719Z,11.93
2023-04-15T03:59:13.150Z,8.47
2023-04-15T04:01:41.568Z,6.00
2023-04-15T04:04:11.642Z,7.00
2023-04-15T04:06:40.120Z,10.73
2023-04-15T04:09:08.531Z,9.90
2023-04-15T04:11:37.635Z,7.47
2023-04-15T04:14:06.489Z,10.50
2023-04-15T04:16:34.933Z,5.77
2023-04-15T04:19:03.589Z,9.30
2023-04-15T04:21:34.200Z,6.03
2023-04-15T04:24:02.623Z,12.23
2023-04-15T04:26:31.205Z,8.73
2023-04-15T04:28:59.850Z,8.50
2023-04-15T04:31:28.498Z,9.37
2023-04-15T04:33:56.921Z,7.70
2023-04-15T04:36:26.451Z,10.37
2023-04-15T04:38:56.263Z,7.77
2023-04-15T04:41:24.836Z,8.37
2023-04-15T04:43:53.259Z,12.03
2023-04-15T04:46:21.720Z,8.03
2023-04-15T04:48:50.122Z,10.37
2023-04-15T04:51:18.709Z,9.03
2023-04-15T04:53:47.175Z,11.93
2023-04-15T04:56:16.966Z,8.17
2023-04-15T04:58:45.377Z,7.77
2023-04-15T05:01:14.037Z,7.40
2023-04-15T05:03:42.591Z,8.80
2023-04-15T05:06:11.369Z,6.83
2023-04-15T05:08:41.313Z,7.47
2023-04-15T05:11:09.753Z,10.50
2023-04-15T05:13:39.732Z,8.70
2023-04-15T05:16:08.525Z,6.77
2023-04-15T05:18:37.960Z,5.33
2023-04-15T05:21:07.168Z,7.97
2023-04-15T05:23:35.658Z,10.90
2023-04-15T05:26:04.121Z,11.40
2023-04-15T05:28:32.573Z,12.57
2023-04-15T05:31:02.426Z,9.60
2023-04-15T05:33:30.855Z,7.20
2023-04-15T05:35:59.273Z,9.77
2023-04-15T05:38:27.679Z,6.90
2023-04-15T05:40:56.664Z,8.83
2023-04-15T05:43:25.122Z,9.97
2023-04-15T05:45:53.569Z,12.37
2023-04-15T05:48:23.387Z,8.23
2023-04-15T05:50:51.820Z,8.13
2023-04-15T05:53:20.742Z,5.80
2023-04-15T05:55:49.173Z,9.07
2023-04-15T05:58:17.608Z,8.27
2023-04-15T06:00:46.233Z,8.20
2023-04-15T06:03:14.730Z,8.20
2023-04-15T06:05:45.046Z,11.77
2023-04-15T06:08:13.853Z,8.63
2023-04-15T06:10:42.271Z,8.10
2023-04-15T06:13:10.680Z,11.40
2023-04-15T06:15:39.087Z,6.70
2023-04-15T06:18:07.485Z,7.17
2023-04-15T06:20:36.706Z,8.50
2023-04-15T06:23:06.778Z,7.23
2023-04-15T06:25:35.158Z,8.83
2023-04-15T06:28:03.829Z,7.23
2023-04-15T06:30:32.235Z,11.00
2023-04-15T06:33:00.716Z,7.93
2023-04-15T06:35:29.192Z,13.63
2023-04-15T06:37:57.695Z,6.90
2023-04-15T06:40:28.281Z,9.27
2023-04-15T06:42:57.163Z,3.93
2023-04-15T06:45:25.728Z,4.83
2023-04-15T06:47:54.217Z,8.60
2023-04-15T06:50:22.674Z,7.47
2023-04-15T06:52:51.344Z,3.70
2023-04-15T06:55:19.818Z,7.20
2023-04-15T06:57:49.677Z,4.77
2023-04-15T07:00:18.364Z,6.60
2023-04-15T07:02:47.250Z,7.93
2023-04-15T07:05:22.147Z,8.10
2023-04-15T07:07:50.551Z,9.03
2023-04-15T07:10:19.485Z,5.13
2023-04-15T07:12:50.818Z,8.37
2023-04-15T07:15:19.242Z,6.33
2023-04-15T07:17:47.701Z,5.93
2023-04-15T07:20:16.149Z,5.63
2023-04-15T07:22:44.557Z,8.67
2023-04-15T07:25:12.987Z,10.43
2023-04-15T07:27:41.768Z,6.67
2023-04-15T07:30:12.564Z,5.23
2023-04-15T07:32:41.123Z,6.63
2023-04-15T07:35:10.306Z,8.33
2023-04-15T07:37:38.719Z,4.60
2023-04-15T07:40:09.031Z,5.43
2023-04-15T07:42:40.689Z,6.47
2023-04-15T07:45:10.406Z,10.00
2023-04-15T07:47:40.967Z,5.87
2023-04-15T07:50:09.621Z,5.67
2023-04-15T07:52:39.362Z,6.07
2023-04-15T07:55:08.765Z,6.37
2023-04-15T07:57:37.313Z,7.47
2023-04-15T08:00:07.677Z,4.67
2023-04-15T08:02:38.144Z,9.20
2023-04-15T08:05:10.707Z,5.50
2023-04-15T08:07:39.786Z,4.33
2023-04-15T08:10:08.699Z,4.07
2023-04-15T08:12:37.211Z,6.60
2023-04-15T08:15:06.727Z,7.27
2023-04-15T08:17:35.229Z,4.73
2023-04-15T08:20:04.475Z,6.40
2023-04-15T08:22:34.537Z,7.47
2023-04-15T08:25:03.506Z,8.70
2023-04-15T08:27:32.167Z,7.50
2023-04-15T08:30:02.740Z,7.73
2023-04-15T08:32:32.777Z,4.80
2023-04-15T08:35:01.913Z,6.40
2023-04-15T08:37:30.386Z,5.23
2023-04-15T08:40:00.432Z,7.47
2023-04-15T08:42:33.135Z,4.27
2023-04-15T08:45:02.785Z,8.70
2023-04-15T08:47:32.905Z,7.87
2023-04-15T08:50:01.958Z,7.73
2023-04-15T08:52:30.450Z,5.90
2023-04-15T08:55:00.508Z,5.53
2023-04-15T08:57:29.186Z,6.23
2023-04-15T08:59:58.205Z,5.70
2023-04-15T09:02:27.460Z,5.83
2023-04-15T09:04:56.823Z,6.57
2023-04-15T09:07:25.280Z,5.57
2023-04-15T09:09:53.673Z,4.50
2023-04-15T09:12:23.503Z,5.17
2023-04-15T09:14:52.496Z,4.47
2023-04-15T09:17:22.265Z,3.13
2023-04-15T09:19:50.869Z,10.53
2023-04-15T09:22:19.296Z,8.20
2023-04-15T09:24:47.720Z,3.43
2023-04-15T09:27:18.366Z,4.80
2023-04-15T09:29:51.786Z,3.73
2023-04-15T09:32:21.272Z,3.70
2023-04-15T09:34:49.701Z,3.17
2023-04-15T09:37:31.756Z,8.57
2023-04-15T09:40:00.978Z,8.27
2023-04-15T09:42:29.480Z,7.10
2023-04-15T09:45:09.832Z,4.53
2023-04-15T09:47:38.262Z,7.50
2023-04-15T09:50:07.009Z,5.47
2023-04-15T09:52:35.467Z,3.53
2023-04-15T09:55:04.441Z,3.87
2023-04-15T09:57:36.753Z,4.07
2023-04-15T10:00:08.184Z,5.60
2023-04-15T10:02:36.798Z,4.67
2023-04-15T10:05:06.126Z,5.40
2023-04-15T10:07:35.201Z,4.70
2023-04-15T10:10:04.442Z,9.17
2023-04-15T10:12:33.642Z,3.57
2023-04-15T10:15:05.971Z,5.47
2023-04-15T10:17:37.239Z,4.70
2023-04-15T10:20:07.144Z,3.63
2023-04-15T10:22:35.699Z,4.45
2023-04-15T10:25:04.792Z,4.40
2023-04-15T10:27:33.864Z,5.75
2023-04-15T10:30:03.695Z,3.67
2023-04-15T10:32:32.482Z,7.90
2023-04-15T10:35:03.544Z,6.17
2023-04-15T10:37:36.053Z,6.18
2023-04-15T10:40:25.424Z,6.93
2023-04-15T10:42:54.072Z,4.35
2023-04-15T10:45:22.702Z,7.32
2023-04-15T10:47:55.583Z,8.50
2023-04-15T10:50:28.272Z,7.15
2023-04-15T10:52:57.726Z,5.43
2023-04-15T10:55:27.447Z,6.40
2023-04-15T10:57:56.360Z,5.15
2023-04-15T11:00:27.740Z,4.55
2023-04-15T11:02:57.539Z,9.60
2023-04-15T11:05:46.534Z,6.07
2023-04-15T11:08:16.421Z,7.57
2023-04-15T11:10:57.721Z,6.50
2023-04-15T11:13:31.498Z,5.95
2023-04-15T11:16:01.681Z,5.65
2023-04-15T11:18:31.929Z,5.80
2023-04-15T11:21:01.306Z,5.65
2023-04-15T11:23:32.220Z,6.63
2023-04-15T11:26:01.079Z,5.03
2023-04-15T11:28:30.093Z,5.40
2023-04-15T11:30:59.229Z,5.68
2023-04-15T11:33:27.637Z,5.78
2023-04-15T11:35:56.204Z,6.32
2023-04-15T11:38:24.843Z,4.70
2023-04-15T11:40:55.568Z,6.97
2023-04-15T11:43:25.268Z,4.90
2023-04-15T11:45:54.446Z,3.97
2023-04-15T11:48:24.372Z,4.70
2023-04-15T11:50:57.078Z,5.93
2023-04-15T11:53:26.206Z,4.65
2023-04-15T11:55:56.064Z,7.28
2023-04-15T11:58:25.072Z,4.38
2023-04-15T12:00:54.400Z,5.63
2023-04-15T12:03:26.623Z,7.20
2023-04-15T12:06:08.717Z,9.13
2023-04-15T12:09:00.313Z,5.25
2023-04-15T12:11:34.483Z,6.10
2023-04-15T12:14:06.021Z,3.65
2023-04-15T12:16:37.213Z,6.28
2023-04-15T12:19:17.722Z,4.20
2023-04-15T12:21:47.844Z,4.57
2023-04-15T12:24:16.255Z,4.95
2023-04-15T12:26:50.574Z,2.73
2023-04-15T12:29:19.511Z,5.67
2023-04-15T12:31:52.214Z,3.10
2023-04-15T12:34:21.119Z,4.87
2023-04-15T12:36:49.580Z,5.67
2023-04-15T12:39:18.026Z,4.63
2023-04-15T12:41:46.839Z,6.25
2023-04-15T12:44:16.976Z,4.00
2023-04-15T12:46:46.168Z,5.37
2023-04-15T12:49:16.087Z,4.47
2023-04-15T12:51:44.768Z,4.47
2023-04-15T12:54:13.600Z,5.93
2023-04-15T12:56:41.983Z,5.83
2023-04-15T12:59:10.407Z,6.60
2023-04-15T13:01:40.323Z,5.10
2023-04-15T13:04:09.282Z,4.63
2023-04-15T13:06:38.475Z,4.53
2023-04-15T13:09:07.397Z,3.90
2023-04-15T13:11:36.646Z,5.27
2023-04-15T13:14:06.123Z,4.20
2023-04-15T13:16:35.423Z,8.03
2023-04-15T13:19:05.756Z,5.40
2023-04-15T13:21:35.957Z,3.83
2023-04-15T13:24:07.283Z,3.17
2023-04-15T13:26:36.050Z,5.57
2023-04-15T13:29:04.641Z,3.95
2023-04-15T13:31:33.096Z,2.73
2023-04-15T13:34:01.658Z,2.95
2023-04-15T13:36:31.855Z,4.65
2023-04-15T13:39:00.639Z,2.60
2023-04-15T13:41:29.190Z,3.20
2023-04-15T13:43:58.471Z,2.13
2023-04-15T13:46:26.979Z,2.65
2023-04-15T13:48:55.414Z,2.92
2023-04-15T13:51:25.055Z,3.03
2023-04-15T13:53:54.952Z,3.53
2023-04-15T13:56:23.376Z,2.33
2023-04-15T13:58:52.891Z,2.85
2023-04-15T14:01:21.579Z,3.20
2023-04-15T14:03:50.070Z,5.33
2023-04-15T14:06:18.563Z,2.42
2023-04-15T14:08:47.062Z,3.70
2023-04-15T14:11:16.847Z,2.50
2023-04-15T14:13:45.251Z,2.95
2023-04-15T14:16:13.740Z,3.72
2023-04-15T14:18:42.373Z,13.25
2023-04-15T14:21:10.875Z,13.23
2023-04-15T14:23:39.306Z,12.87
2023-04-15T14:26:07.720Z,6.50
2023-04-15T14:28:38.516Z,5.10
2023-04-15T14:31:07.261Z,3.87
2023-04-15T14:33:35.776Z,5.05
2023-04-15T14:36:04.234Z,4.43
2023-04-15T14:38:33.764Z,5.15
2023-04-15T14:41:02.317Z,3.65
2023-04-15T14:43:30.734Z,3.85
2023-04-15T14:46:00.840Z,1.63
2023-04-15T14:48:29.340Z,4.00
2023-04-15T14:50:57.793Z,2.38
2023-04-15T14:53:26.262Z,3.50
2023-04-15T14:55:54.700Z,4.63
2023-04-15T14:58:23.215Z,2.45
2023-04-15T15:00:51.664Z,2.40
2023-04-15T15:03:21.683Z,2.45
2023-04-15T15:05:50.302Z,1.92
2023-04-15T15:08:18.899Z,2.73
2023-04-15T15:10:48.232Z,2.47
2023-04-15T15:13:19.117Z,6.35
2023-04-15T15:15:49.300Z,2.30
2023-04-15T15:18:19.079Z,2.17
2023-04-15T15:20:49.599Z,2.70
2023-04-15T15:23:18.002Z,2.33
2023-04-15T15:25:47.706Z,3.85
2023-04-15T15:28:16.154Z,2.85
2023-04-15T15:30:44.590Z,2.00
2023-04-15T15:33:13.028Z,2.58
2023-04-15T15:35:41.528Z,3.78
2023-04-15T15:38:12.929Z,2.95
2023-04-15T15:40:41.544Z,2.05
2023-04-15T15:43:10.046Z,1.92
2023-04-15T15:45:38.552Z,2.70
2023-04-15T15:48:07.750Z,1.45
2023-04-15T15:50:36.514Z,1.55
2023-04-15T15:53:04.985Z,1.30
2023-04-15T15:55:34.957Z,2.92
2023-04-15T15:58:03.474Z,2.33
2023-04-15T16:00:31.874Z,2.27
2023-04-15T16:05:31.818Z,4.13
2023-04-15T16:08:00.238Z,2.85
2023-04-15T16:10:28.908Z,3.28
2023-04-15T16:12:58.991Z,2.88
2023-04-15T16:15:27.729Z,2.10
2023-04-15T16:17:56.245Z,1.83
2023-04-15T16:20:24.810Z,2.55
2023-04-15T16:22:53.247Z,1.70
2023-04-15T16:25:21.806Z,2.75
2023-04-15T16:27:59.321Z,1.85
2023-04-15T16:30:33.218Z,3.03
2023-04-15T16:33:01.852Z,2.45
2023-04-15T16:35:31.303Z,3.47
2023-04-15T16:38:00.597Z,2.05
2023-04-15T16:40:29.025Z,3.28
2023-04-15T16:42:57.530Z,2.88
2023-04-15T16:45:25.962Z,2.20
2023-04-15T16:47:56.796Z,3.35
2023-04-15T16:50:25.298Z,2.97
2023-04-15T16:52:53.731Z,1.40
2023-04-15T16:55:22.303Z,2.58
2023-04-15T16:58:01.624Z,3.72
2023-04-15T17:00:32.315Z,4.95
2023-04-15T17:03:02.419Z,5.45
2023-04-15T17:05:31.650Z,6.53
2023-04-15T17:08:00.129Z,4.37
2023-04-15T17:10:28.637Z,3.73
2023-04-15T17:12:57.578Z,8.93
2023-04-15T17:15:26.203Z,4.47
2023-04-15T17:17:54.718Z,4.80
2023-04-15T17:20:24.675Z,4.67
2023-04-15T17:22:53.310Z,5.20
2023-04-15T17:25:21.825Z,6.80
2023-04-15T17:27:50.260Z,6.97
2023-04-15T17:30:18.700Z,3.30
2023-04-15T17:32:47.172Z,4.90
2023-04-15T17:35:15.643Z,7.00
2023-04-15T17:37:45.560Z,4.50
2023-04-15T17:40:14.916Z,4.50
2023-04-15T17:42:43.488Z,4.93
2023-04-15T17:45:12.523Z,4.70
2023-04-15T17:47:40.936Z,5.63
2023-04-15T17:50:10.042Z,3.07
2023-04-15T17:52:38.469Z,3.93
2023-04-15T17:55:09.202Z,6.07
2023-04-15T17:57:37.614Z,4.50
2023-04-15T18:00:06.568Z,7.07
2023-04-15T18:02:37.199Z,7.60
2023-04-15T18:05:06.263Z,7.20
2023-04-15T18:07:34.772Z,10.47
2023-04-15T18:10:03.277Z,8.90
2023-04-15T18:12:33.096Z,12.30
2023-04-15T18:15:01.636Z,7.03
2023-04-15T18:17:30.172Z,12.90
2023-04-15T18:19:58.592Z,8.27
2023-04-15T18:22:27.304Z,6.33
2023-04-15T18:24:58.942Z,5.53
2023-04-15T18:27:27.427Z,9.00
2023-04-15T18:29:57.263Z,5.13
2023-04-15T18:32:25.705Z,11.80
2023-04-15T18:34:55.569Z,5.20
2023-04-15T18:37:24.448Z,7.37
2023-04-15T18:39:54.156Z,8.40
2023-04-15T18:42:22.740Z,17.20
2023-04-15T18:44:51.654Z,5.70
2023-04-15T18:47:21.642Z,11.60
2023-04-15T18:49:50.057Z,9.03
2023-04-15T18:52:18.482Z,12.77
2023-04-15T18:54:46.888Z,6.30
2023-04-15T18:57:23.290Z,17.30
2023-04-15T19:00:00.703Z,8.93
2023-04-15T19:02:30.674Z,10.83
2023-04-15T19:04:59.141Z,11.13
2023-04-15T19:07:27.584Z,5.83
2023-04-15T19:09:55.988Z,9.93
2023-04-15T19:12:24.399Z,11.10
2023-04-15T19:14:52.835Z,6.10
2023-04-15T19:17:21.311Z,6.50
2023-04-15T19:19:51.189Z,5.70
2023-04-15T19:22:19.705Z,4.97
2023-04-15T19:24:48.239Z,5.80
2023-04-15T19:27:16.715Z,5.93
2023-04-15T19:29:45.631Z,8.20
2023-04-15T19:32:14.699Z,7.47
2023-04-15T19:34:43.305Z,6.73
2023-04-15T19:37:13.235Z,4.40
2023-04-15T19:39:41.672Z,2.40
2023-04-15T19:42:10.167Z,4.13
2023-04-15T19:44:42.746Z,5.10
2023-04-15T19:47:11.234Z,2.70
2023-04-15T19:49:39.770Z,3.37
2023-04-15T19:52:08.197Z,5.53
2023-04-15T19:54:38.046Z,6.37
2023-04-15T19:57:06.554Z,5.87
2023-04-15T19:59:34.987Z,2.23
2023-04-15T20:02:03.565Z,4.73
2023-04-15T20:04:32.156Z,6.20
2023-04-15T20:07:00.718Z,3.10
2023-04-15T20:09:29.177Z,4.00
2023-04-15T20:12:46.927Z,3.40
2023-04-15T20:14:47.394Z,4.70
2023-04-15T20:17:16.505Z,4.20
2023-04-15T20:19:44.967Z,3.53
2023-04-15T20:22:13.426Z,4.17
2023-04-15T20:24:41.863Z,2.37
2023-04-15T20:27:11.688Z,1.47
2023-04-15T20:29:40.132Z,1.80
2023-04-15T20:32:11.373Z,1.97
2023-04-15T20:34:40.823Z,1.97
2023-04-15T20:37:09.223Z,2.77
2023-04-15T20:39:37.620Z,2.63
2023-04-15T20:42:10.102Z,3.73
2023-04-15T20:44:39.992Z,1.97
2023-04-15T20:47:08.670Z,2.13
2023-04-15T20:49:37.397Z,3.40
2023-04-15T20:52:06.480Z,3.13
2023-04-15T20:54:34.882Z,2.13
2023-04-15T20:57:03.331Z,2.47
2023-04-15T20:59:32.157Z,2.57
2023-04-15T21:02:02.107Z,3.67
2023-04-15T21:04:30.860Z,2.60
2023-04-15T21:06:59.255Z,2.83
2023-04-15T21:09:27.695Z,3.70
2023-04-15T21:14:27.563Z,6.17
2023-04-15T21:16:56.024Z,3.73
2023-04-15T21:19:25.861Z,3.97
2023-04-15T21:21:54.266Z,3.97
2023-04-15T21:24:22.686Z,3.33
2023-04-15T21:26:51.189Z,3.77
2023-04-15T21:29:19.615Z,3.27
2023-04-15T21:31:48.053Z,4.70
2023-04-15T21:34:16.572Z,3.27
2023-04-15T21:36:46.369Z,3.23
2023-04-15T21:39:14.799Z,2.90
2023-04-15T21:41:43.460Z,3.53
2023-04-15T21:44:14.410Z,3.80
2023-04-15T21:46:46.034Z,4.67
2023-04-15T21:49:14.818Z,2.90
2023-04-15T21:51:43.262Z,2.73
2023-04-15T21:54:13.057Z,3.80
2023-04-15T21:56:42.368Z,4.23
2023-04-15T21:59:10.901Z,3.30
2023-04-15T22:01:39.346Z,4.80
2023-04-15T22:04:07.913Z,4.00
2023-04-15T22:06:36.518Z,5.33
2023-04-15T22:09:05.034Z,3.93
2023-04-15T22:11:34.831Z,4.77
2023-04-15T22:14:03.245Z,3.83
2023-04-15T22:16:31.713Z,4.37
2023-04-15T22:19:00.209Z,5.43
2023-04-15T22:21:28.649Z,5.80
2023-04-15T22:24:32.941Z,4.57
2023-04-15T22:26:46.997Z,5.70
2023-04-15T22:29:15.388Z,5.97
2023-04-15T22:31:44.645Z,4.90
2023-04-15T22:34:14.838Z,6.27
2023-04-15T22:36:43.290Z,7.13
2023-04-15T22:39:11.724Z,6.10
2023-04-15T22:41:40.169Z,5.70
2023-04-15T22:44:10.074Z,8.27
2023-04-15T22:46:38.729Z,5.60
2023-04-15T22:49:09.338Z,6.07
2023-04-15T22:51:38.258Z,6.53
2023-04-15T22:54:06.666Z,6.40
2023-04-15T22:56:35.121Z,6.17
2023-04-15T22:59:03.535Z,6.03
2023-04-15T23:01:33.345Z,5.43
2023-04-15T23:04:07.006Z,6.97
2023-04-15T23:06:37.360Z,6.03
2023-04-15T23:09:05.904Z,6.13
2023-04-15T23:11:34.384Z,5.47
2023-04-15T23:14:02.850Z,6.23
2023-04-15T23:16:31.382Z,6.07
2023-04-15T23:19:01.263Z,6.77
2023-04-15T23:21:29.711Z,7.13
2023-04-15T23:23:58.215Z,5.27
2023-04-15T23:26:27.469Z,7.03
2023-04-15T23:28:55.932Z,5.97
2023-04-15T23:31:24.422Z,6.13
2023-04-15T23:33:53.030Z,6.03
2023-04-15T23:36:22.881Z,5.70
2023-04-15T23:38:51.390Z,5.70
2023-04-15T23:41:20.047Z,5.80
2023-04-15T23:43:48.506Z,7.10
2023-04-15T23:46:17.131Z,7.00
2023-04-15T23:48:47.787Z,7.13
2023-04-15T23:51:16.543Z,7.07
2023-04-15T23:53:46.640Z,5.80
2023-04-15T23:56:15.083Z,6.77
2023-04-15T23:58:43.543Z,6.07
